This is the latest recevied weather packets stored in our database for station/object M0TUM-1. If no packets are shown the sender has not sent any weather packets the latest 10 day(s).
| Time | Temp. | Humidity | Pressure | Rain* | Wind** | Luminosity | Snow |
|---|---|---|---|---|---|---|---|
| 1778165792 | 12.78° C | 63% | 1016.5 hPa | 0 mm | - | 72 W/m² | - |
| 1778165490 | 12.78° C | 63% | 1016.6 hPa | 0 mm | - | 75 W/m² | - |
| 1778165186 | 12.78° C | 63% | 1016.4 hPa | 0 mm | - | 85 W/m² | - |
| 1778164885 | 12.78° C | 63% | 1016.5 hPa | 0 mm | - | 89 W/m² | - |
| 1778164581 | 12.78° C | 63% | 1016.6 hPa | 0 mm | - | 101 W/m² | - |
| 1778164278 | 13.33° C | 62% | 1016.6 hPa | 0 mm | - | 120 W/m² | - |
| 1778163973 | 13.33° C | 62% | 1016.6 hPa | 0 mm | - | 146 W/m² | - |
| 1778163671 | 13.33° C | 61% | 1016.5 hPa | 0 mm | - | 171 W/m² | - |
| 1778163367 | 13.33° C | 61% | 1016.4 hPa | 0 mm | - | 179 W/m² | - |
| 1778163064 | 13.33° C | 61% | 1016.7 hPa | 0 mm | - | 190 W/m² | - |
| 1778162760 | 13.33° C | 62% | 1016.5 hPa | 0 mm | - | 190 W/m² | - |
| 1778162457 | 13.33° C | 62% | 1016.7 hPa | 0 mm | - | 195 W/m² | - |
| 1778162154 | 13.33° C | 62% | 1016.7 hPa | 0 mm | - | 196 W/m² | - |
| 1778161852 | 13.33° C | 62% | 1016.7 hPa | 0 mm | - | 140 W/m² | - |
| 1778161548 | 13.33° C | 62% | 1016.6 hPa | 0 mm | - | 142 W/m² | - |
| 1778161244 | 13.33° C | 62% | 1016.6 hPa | 0 mm | - | 354 W/m² | - |
| 1778160940 | 13.89° C | 61% | 1016.8 hPa | 0 mm | - | 177 W/m² | - |
| 1778160638 | 13.89° C | 62% | 1016.8 hPa | 0 mm | - | 239 W/m² | - |
| 1778160335 | 14.44° C | 59% | 1016.8 hPa | 0 mm | - | 223 W/m² | - |
| 1778160031 | 14.44° C | 57% | 1016.9 hPa | 0 mm | - | 223 W/m² | - |
| 1778159728 | 15.56° C | 55% | 1016.7 hPa | 0 mm | - | 259 W/m² | - |
| 1778159425 | 15° C | 56% | 1016.7 hPa | 0 mm | - | 681 W/m² | - |
| 1778159122 | 14.44° C | 56% | 1016.8 hPa | 0 mm | - | 291 W/m² | - |
| 1778158820 | 14.44° C | 58% | 1016.8 hPa | 0 mm | - | 387 W/m² | - |
| 1778158519 | 14.44° C | 57% | 1016.7 hPa | 0 mm | - | 259 W/m² | - |
* Rain latest hour (hover to see other rain measurements)
** Current wind speed in m/s (hover to see current wind gust speed)